San Antonio, Costa Rica

2:40 AM CST on December 22, 2014 (GMT -0600)
Calle Lajas | Change Station
CLOSE
Current Station
Personal Weather Station
Location: San Jose Escazu, SAN JOSE
Elevation: 4869 ft
Nearby Weather Stations

Elev 4869 ft 9.89 °N, 84.14 °W | Updated 327 days ago

Mostly Cloudy
Mostly Cloudy
55 °F
Feels Like 55 °F
N
5
Wind Variable Wind from East
Gusts mph

Today
High -- | Low -- °F
--% Chance of Precip.
Yesterday
High -- | Low -- °F
Precip. -- in
5:48 AM 5:21 PM
New Moon, 0% visible
Pressure 29.96 in
Visibility -9999.0 miles
Clouds
Dew Point 50 °F
Humidity 81%
Rainfall 0.00 in
Snow Depth Not available.
UV Not available.
Pollen Not available.
Air Quality Not available.
Flu Activity Not available.
METAR MROC 220800Z 07004KT CAVOK 19/14 A2996 NOSIG

More Conditions Fewer Conditions

Pressure 29.96 in
Visibility -9999.0 miles
Clouds
Dew Point 50 °F
Humidity 81%
Rainfall 0.00 in
Snow Depth Not available.
UV Not available.
Pollen Not available.
Air Quality Not available.
Flu Activity Not available.
METAR MROC 220800Z 07004KT CAVOK 19/14 A2996 NOSIG

More Conditions Fewer Conditions

10-Day Weather Forecast

Almanac

Astronomy

Dec. 22, 2014 Rise Set
Actual Time
Civil Twilight
Nautical Twilight
Astronomical Twilight
Moon
Length of Visible Light
Length of Day
Tomorrow will be .
, % of the Moon is Illuminated

Today's Extremes

Country Highs Country Lows

Community

WunderPhotos

Upload Photos

1,779,580 photos uploaded!

WunderBlogs® & News

Nearby

Air Quality

  Air Quality AQ Index Pollutant
Not available.

Snow Depth

Station Depth Elevation

Earthquake Activity

City Distance Mag. Time & Date
Minimum magnitude displayed is 2.5.

Coastal Water Temperatures

Place Temperature

Nearby Weather Stations